Time;durP1;ratioP1;P1;durP2;ratioP2;P2;SDS_P1;SDS_P2;PMS_P1;PMS_P2;Temp;Humidity;BMP_temperature;BMP_pressure;BME280_temperature;BME280_humidity;BME280_pressure;Samples;Min_cycle;Max_cycle;Signal;HPM_P1;HPM_P2
2022/12/23 00:01:24;;;;;;;;;;;10.30;99.90;;;;;;8368184;28;19924;-70
2022/12/23 00:05:26;;;;;;;;;;;10.30;99.90;;;;;;8390355;28;19932;-71
2022/12/23 00:09:33;;;;;;;;;;;10.30;99.90;;;;;;8374484;28;19924;-71
2022/12/23 00:17:55;;;;;;;;;;;10.30;99.90;;;;;;8383327;28;20277;-71
2022/12/23 00:21:56;;;;;;;;;;;10.30;99.90;;;;;;8376702;28;19925;-71
2022/12/23 00:25:58;;;;;;;;;;;10.30;99.90;;;;;;8380035;28;19964;-71
2022/12/23 00:30:00;;;;;;;;;;;10.30;99.90;;;;;;8387350;28;19931;-70
2022/12/23 00:34:01;;;;;;;;;;;10.30;99.90;;;;;;8367423;28;20552;-70
2022/12/23 00:38:03;;;;;;;;;;;10.30;99.90;;;;;;8382347;28;20407;-70
2022/12/23 00:46:25;;;;;;;;;;;10.30;99.90;;;;;;8395940;28;19936;-71
2022/12/23 00:50:27;;;;;;;;;;;10.30;99.90;;;;;;8357764;28;19940;-71
2022/12/23 00:54:30;;;;;;;;;;;10.30;99.90;;;;;;8374820;28;19968;-71
2022/12/23 00:58:32;;;;;;;;;;;10.30;99.90;;;;;;8373232;28;19978;-71
2022/12/23 01:06:54;;;;;;;;;;;10.30;99.90;;;;;;8375573;28;20425;-71
2022/12/23 01:10:56;;;;;;;;;;;10.30;99.90;;;;;;8379275;28;19974;-70
2022/12/23 01:14:57;;;;;;;;;;;10.30;99.90;;;;;;8386476;28;19975;-71
2022/12/23 01:18:59;;;;;;;;;;;10.30;99.90;;;;;;8385537;28;19925;-71
2022/12/23 01:23:01;;;;;;;;;;;10.30;99.90;;;;;;8353289;28;19928;-71
2022/12/23 01:27:02;;;;;;;;;;;10.20;99.90;;;;;;8374180;28;19925;-71
2022/12/23 01:31:04;;;;;;;;;;;10.30;99.90;;;;;;8357875;28;19932;-71
2022/12/23 01:35:06;;;;;;;;;;;10.20;99.90;;;;;;8377520;28;19932;-71
2022/12/23 01:39:08;;;;;;;;;;;10.30;99.90;;;;;;8372690;28;19979;-71
2022/12/23 01:43:17;;;;;;;;;;;10.30;99.90;;;;;;8352019;28;19925;-71
2022/12/23 01:47:21;;;;;;;;;;;10.30;99.90;;;;;;8381653;28;19924;-71
2022/12/23 01:51:26;;;;;;;;;;;10.30;99.90;;;;;;8362670;28;19924;-70
2022/12/23 01:55:29;;;;;;;;;;;10.30;99.90;;;;;;8373934;28;19948;-70
2022/12/23 02:03:53;;;;;;;;;;;10.30;99.90;;;;;;8367684;28;19931;-70
2022/12/23 02:12:30;;;;;;;;;;;10.30;99.90;;;;;;8371802;28;20273;-71
2022/12/23 02:16:36;;;;;;;;;;;10.30;99.90;;;;;;8368163;28;19968;-71
2022/12/23 02:20:40;;;;;;;;;;;10.30;99.90;;;;;;8383137;28;19931;-71
2022/12/23 02:24:42;;;;;;;;;;;10.20;99.90;;;;;;8382217;28;19987;-71
2022/12/23 02:28:59;;;;;;;;;;;10.20;99.90;;;;;;8386025;28;19924;-71
2022/12/23 02:33:03;;;;;;;;;;;10.20;99.90;;;;;;8391636;28;19924;-71
2022/12/23 02:37:05;;;;;;;;;;;10.20;99.90;;;;;;8372624;28;19929;-70
2022/12/23 02:41:13;;;;;;;;;;;10.20;99.90;;;;;;8379281;28;19932;-71
2022/12/23 02:45:19;;;;;;;;;;;10.10;99.90;;;;;;8395015;28;19928;-71
2022/12/23 02:49:21;;;;;;;;;;;10.10;99.90;;;;;;8370365;28;19925;-71
2022/12/23 02:53:29;;;;;;;;;;;10.10;99.90;;;;;;8377154;28;19925;-70
2022/12/23 03:07:40;;;;;;;;;;;10.10;99.90;;;;;;8374188;28;20012;-71
2022/12/23 03:11:48;;;;;;;;;;;10.00;99.90;;;;;;8370140;28;19951;-71
2022/12/23 03:16:07;;;;;;;;;;;10.10;99.90;;;;;;8383714;28;19928;-71
2022/12/23 03:20:33;;;;;;;;;;;10.00;99.90;;;;;;8390425;28;19925;-70
2022/12/23 03:24:49;;;;;;;;;;;10.00;99.90;;;;;;8378355;28;19975;-71
2022/12/23 03:29:00;;;;;;;;;;;10.10;99.90;;;;;;8376472;28;19925;-71
2022/12/23 03:33:03;;;;;;;;;;;10.00;99.90;;;;;;8387043;28;19925;-70
2022/12/23 03:37:07;;;;;;;;;;;10.00;99.90;;;;;;8372927;28;19928;-70
2022/12/23 03:41:11;;;;;;;;;;;10.00;99.90;;;;;;8380321;28;20364;-70
2022/12/23 03:45:15;;;;;;;;;;;10.00;99.90;;;;;;8391524;28;19979;-71
2022/12/23 03:49:40;;;;;;;;;;;10.00;99.90;;;;;;8388565;28;21993;-71
2022/12/23 03:53:48;;;;;;;;;;;10.00;99.90;;;;;;8394852;28;19974;-71
2022/12/23 03:58:03;;;;;;;;;;;10.00;99.90;;;;;;8380967;28;19925;-70
2022/12/23 04:02:23;;;;;;;;;;;9.90;99.90;;;;;;8392945;28;19931;-71
2022/12/23 04:06:27;;;;;;;;;;;9.90;99.90;;;;;;8375556;28;19951;-71
2022/12/23 04:16:04;;;;;;;;;;;9.90;99.90;;;;;;8373285;28;19918;-71
2022/12/23 04:20:06;;;;;;;;;;;9.90;99.90;;;;;;8384932;28;20395;-71
2022/12/23 04:24:08;;;;;;;;;;;9.80;99.90;;;;;;8365928;28;20295;-71
2022/12/23 04:28:09;;;;;;;;;;;9.80;99.90;;;;;;8382384;28;19925;-71
2022/12/23 04:32:11;;;;;;;;;;;9.80;99.90;;;;;;8391468;28;20345;-71
2022/12/23 04:36:13;;;;;;;;;;;9.80;99.90;;;;;;8389269;28;19932;-71
2022/12/23 04:40:14;;;;;;;;;;;9.80;99.90;;;;;;8377881;28;19931;-71
2022/12/23 04:44:16;;;;;;;;;;;9.70;99.90;;;;;;8371412;28;19932;-71
2022/12/23 04:48:18;;;;;;;;;;;9.70;99.90;;;;;;8376275;28;19925;-72
2022/12/23 04:52:20;;;;;;;;;;;9.70;99.90;;;;;;8369250;28;20356;-71
2022/12/23 04:56:21;;;;;;;;;;;9.70;99.90;;;;;;8360646;28;19952;-71
2022/12/23 05:00:23;;;;;;;;;;;9.70;99.90;;;;;;8373915;28;19963;-70
2022/12/23 05:04:25;;;;;;;;;;;9.70;99.90;;;;;;8382079;28;20011;-70
2022/12/23 05:08:27;;;;;;;;;;;9.70;99.90;;;;;;8380121;28;19944;-70
2022/12/23 05:12:29;;;;;;;;;;;9.70;99.90;;;;;;8382172;28;20276;-70
2022/12/23 05:16:30;;;;;;;;;;;9.70;99.90;;;;;;8373760;28;20376;-70
2022/12/23 05:20:32;;;;;;;;;;;9.70;99.90;;;;;;8371261;28;19931;-70
2022/12/23 05:24:33;;;;;;;;;;;9.70;99.90;;;;;;8375861;28;19928;-70
2022/12/23 05:28:35;;;;;;;;;;;9.60;99.90;;;;;;8398232;28;19936;-70
2022/12/23 05:32:38;;;;;;;;;;;9.60;99.90;;;;;;8379393;28;20372;-70
2022/12/23 05:36:39;;;;;;;;;;;9.60;99.90;;;;;;8371328;28;19924;-71
2022/12/23 05:40:41;;;;;;;;;;;9.60;99.90;;;;;;8377374;28;19925;-70
2022/12/23 05:44:43;;;;;;;;;;;9.60;99.90;;;;;;8389353;28;19933;-70
2022/12/23 05:48:44;;;;;;;;;;;9.60;99.90;;;;;;8405508;28;19936;-70
2022/12/23 05:52:46;;;;;;;;;;;9.60;99.90;;;;;;8389332;28;19976;-70
2022/12/23 05:56:47;;;;;;;;;;;9.60;99.90;;;;;;8392798;28;20455;-70
2022/12/23 06:00:49;;;;;;;;;;;9.60;99.90;;;;;;8385703;28;19935;-70
2022/12/23 06:04:51;;;;;;;;;;;9.60;99.90;;;;;;8394763;28;20288;-71
2022/12/23 06:08:52;;;;;;;;;;;9.60;99.90;;;;;;8375943;28;22021;-71
2022/12/23 06:12:59;;;;;;;;;;;9.60;99.90;;;;;;8386938;28;19924;-70
2022/12/23 06:17:01;;;;;;;;;;;9.60;99.90;;;;;;8369646;28;19956;-70
2022/12/23 06:21:03;;;;;;;;;;;9.60;99.90;;;;;;8377492;28;19978;-70
2022/12/23 06:25:05;;;;;;;;;;;9.60;99.90;;;;;;8394827;28;20447;-70
2022/12/23 06:29:06;;;;;;;;;;;9.60;99.90;;;;;;8409815;28;19935;-70
2022/12/23 06:33:08;;;;;;;;;;;9.60;99.90;;;;;;8389076;28;20299;-70
2022/12/23 06:37:10;;;;;;;;;;;9.60;99.90;;;;;;8385578;28;20305;-70
2022/12/23 06:41:11;;;;;;;;;;;9.60;99.90;;;;;;8365834;28;19980;-70
2022/12/23 06:45:13;;;;;;;;;;;9.60;99.90;;;;;;8385757;28;19924;-70
2022/12/23 06:49:15;;;;;;;;;;;9.60;99.90;;;;;;8380108;28;19924;-70
2022/12/23 06:53:16;;;;;;;;;;;9.70;99.90;;;;;;8384449;28;19932;-71
2022/12/23 06:57:18;;;;;;;;;;;9.60;99.90;;;;;;8366025;28;19924;-70
2022/12/23 07:01:20;;;;;;;;;;;9.60;99.90;;;;;;8370661;28;19980;-70
2022/12/23 07:05:21;;;;;;;;;;;9.60;99.90;;;;;;8388347;28;20495;-70
2022/12/23 07:09:23;;;;;;;;;;;9.60;99.90;;;;;;8370333;28;19925;-70
2022/12/23 07:13:25;;;;;;;;;;;9.60;99.90;;;;;;8379941;28;19928;-70
2022/12/23 07:17:27;;;;;;;;;;;9.60;99.90;;;;;;8360549;28;20376;-70
2022/12/23 07:21:28;;;;;;;;;;;9.50;99.90;;;;;;8370240;28;20391;-70
2022/12/23 07:25:30;;;;;;;;;;;9.60;99.90;;;;;;8369592;28;20394;-70
2022/12/23 07:29:32;;;;;;;;;;;9.50;99.90;;;;;;8399112;28;19931;-70
2022/12/23 07:33:34;;;;;;;;;;;9.50;99.90;;;;;;8378687;28;20406;-70
2022/12/23 07:37:35;;;;;;;;;;;9.50;99.90;;;;;;8379114;28;20011;-70
2022/12/23 07:41:37;;;;;;;;;;;9.60;99.90;;;;;;8389363;28;20011;-70
2022/12/23 07:45:39;;;;;;;;;;;9.60;99.90;;;;;;8403026;28;19928;-70
2022/12/23 07:49:40;;;;;;;;;;;9.60;99.90;;;;;;8396337;28;19933;-70
2022/12/23 07:53:42;;;;;;;;;;;9.70;99.90;;;;;;8395210;28;19928;-70
2022/12/23 07:57:50;;;;;;;;;;;9.70;99.90;;;;;;8391852;28;19932;-70
2022/12/23 08:01:51;;;;;;;;;;;9.60;99.90;;;;;;8390642;28;20456;-70
2022/12/23 08:06:00;;;;;;;;;;;9.60;99.90;;;;;;8396189;28;19947;-70
2022/12/23 08:10:02;;;;;;;;;;;9.60;99.90;;;;;;8393961;28;19933;-70
2022/12/23 08:14:04;;;;;;;;;;;9.60;99.90;;;;;;8393053;28;20296;-71
2022/12/23 08:18:05;;;;;;;;;;;9.60;99.90;;;;;;8392647;28;19925;-70
2022/12/23 08:22:07;;;;;;;;;;;9.60;99.90;;;;;;8391938;28;19963;-70
2022/12/23 08:26:13;;;;;;;;;;;9.60;99.90;;;;;;8388290;28;19931;-70
2022/12/23 08:30:15;;;;;;;;;;;9.60;99.90;;;;;;8388504;28;19948;-70
2022/12/23 08:34:18;;;;;;;;;;;9.60;99.90;;;;;;8394372;28;19972;-70
2022/12/23 08:38:19;;;;;;;;;;;9.60;99.90;;;;;;8388655;28;19950;-70
2022/12/23 08:42:21;;;;;;;;;;;9.60;99.90;;;;;;8394685;28;19925;-70
2022/12/23 08:46:23;;;;;;;;;;;9.60;99.90;;;;;;8373460;28;19932;-70
2022/12/23 08:50:25;;;;;;;;;;;9.60;99.90;;;;;;8375394;28;20000;-70
2022/12/23 08:54:28;;;;;;;;;;;9.70;99.90;;;;;;8398633;28;20398;-70
2022/12/23 08:58:29;;;;;;;;;;;9.70;99.90;;;;;;8393286;28;19924;-70
2022/12/23 09:02:31;;;;;;;;;;;9.70;99.90;;;;;;8393781;28;19925;-70
2022/12/23 09:06:35;;;;;;;;;;;9.70;99.90;;;;;;8378299;28;20387;-70
2022/12/23 09:10:43;;;;;;;;;;;9.70;99.90;;;;;;8391845;28;20253;-70
2022/12/23 09:14:46;;;;;;;;;;;9.70;99.90;;;;;;8368176;28;20346;-70
2022/12/23 09:18:48;;;;;;;;;;;9.70;99.90;;;;;;8395663;28;19963;-70
2022/12/23 09:22:49;;;;;;;;;;;9.70;99.90;;;;;;8407065;28;19924;-70
2022/12/23 09:26:51;;;;;;;;;;;9.70;99.90;;;;;;8383168;28;20343;-70
2022/12/23 09:30:53;;;;;;;;;;;9.70;99.90;;;;;;8399115;28;20417;-70
2022/12/23 09:34:56;;;;;;;;;;;9.80;99.90;;;;;;8396290;28;19925;-70
2022/12/23 09:38:58;;;;;;;;;;;9.80;99.90;;;;;;8399629;28;19935;-70
2022/12/23 09:43:18;;;;;;;;;;;9.80;99.90;;;;;;8390783;28;19931;-70
2022/12/23 09:47:21;;;;;;;;;;;9.90;99.90;;;;;;8401198;28;19924;-71
2022/12/23 09:51:23;;;;;;;;;;;9.90;99.90;;;;;;8378697;28;20406;-70
2022/12/23 09:55:32;;;;;;;;;;;9.90;99.90;;;;;;8396751;28;20322;-70
2022/12/23 09:59:46;;;;;;;;;;;9.90;99.90;;;;;;8372401;28;19940;-70
2022/12/23 10:04:07;;;;;;;;;;;10.00;99.90;;;;;;8376108;28;19936;-70
2022/12/23 10:08:11;;;;;;;;;;;10.00;99.90;;;;;;8407176;28;19928;-70
2022/12/23 10:12:17;;;;;;;;;;;10.00;99.90;;;;;;8396221;28;20288;-70
2022/12/23 10:16:31;;;;;;;;;;;10.00;99.90;;;;;;8396906;28;19924;-70
2022/12/23 10:20:43;;;;;;;;;;;10.00;99.90;;;;;;8389825;28;19930;-70
2022/12/23 10:24:45;;;;;;;;;;;10.10;99.90;;;;;;8387886;28;19932;-70
2022/12/23 10:28:48;;;;;;;;;;;10.10;99.90;;;;;;8389261;28;19925;-70
2022/12/23 10:32:49;;;;;;;;;;;10.10;99.90;;;;;;8396590;28;19924;-70
2022/12/23 10:36:59;;;;;;;;;;;10.10;99.90;;;;;;8398138;28;19931;-70
2022/12/23 10:41:09;;;;;;;;;;;10.10;99.90;;;;;;8390201;28;19986;-70
2022/12/23 10:45:30;;;;;;;;;;;10.20;99.90;;;;;;8403141;28;20014;-70
2022/12/23 10:49:41;;;;;;;;;;;10.10;99.90;;;;;;8395726;28;19943;-70
2022/12/23 10:53:46;;;;;;;;;;;10.10;99.90;;;;;;8399615;28;19974;-70
2022/12/23 10:57:49;;;;;;;;;;;10.20;99.90;;;;;;8398477;28;19968;-70
2022/12/23 11:01:55;;;;;;;;;;;10.20;99.90;;;;;;8396447;28;20358;-70
2022/12/23 11:05:59;;;;;;;;;;;10.20;99.90;;;;;;8397848;28;19928;-70
2022/12/23 11:10:05;;;;;;;;;;;10.20;99.90;;;;;;8393880;28;20363;-70
2022/12/23 11:14:27;;;;;;;;;;;10.20;99.90;;;;;;8379070;28;19930;-70
2022/12/23 11:18:29;;;;;;;;;;;10.20;99.90;;;;;;8379729;28;19974;-70
2022/12/23 11:22:30;;;;;;;;;;;10.10;99.90;;;;;;8409639;28;19931;-70
2022/12/23 11:26:32;;;;;;;;;;;10.10;99.90;;;;;;8380109;28;19924;-70
2022/12/23 11:30:45;;;;;;;;;;;10.10;99.90;;;;;;8376014;28;19939;-70
2022/12/23 11:34:54;;;;;;;;;;;10.20;99.90;;;;;;8392553;28;19931;-70
2022/12/23 11:39:13;;;;;;;;;;;10.10;99.90;;;;;;8383346;28;19940;-70
2022/12/23 11:43:16;;;;;;;;;;;10.10;99.90;;;;;;8380458;28;19924;-70
2022/12/23 11:47:20;;;;;;;;;;;10.10;99.90;;;;;;8406687;28;20299;-70
2022/12/23 11:51:23;;;;;;;;;;;10.10;99.90;;;;;;8388986;28;19935;-70
2022/12/23 11:55:28;;;;;;;;;;;10.10;99.90;;;;;;8373787;28;20426;-70
2022/12/23 11:59:33;;;;;;;;;;;10.10;99.90;;;;;;8373151;28;20022;-70
2022/12/23 12:03:42;;;;;;;;;;;10.10;99.90;;;;;;8399340;28;19928;-70
2022/12/23 12:07:45;;;;;;;;;;;10.10;99.90;;;;;;8379536;28;19928;-70
2022/12/23 12:11:52;;;;;;;;;;;10.10;99.90;;;;;;8364593;28;20385;-70
2022/12/23 12:16:06;;;;;;;;;;;10.10;99.90;;;;;;8393084;28;19924;-70
2022/12/23 12:20:16;;;;;;;;;;;10.10;99.90;;;;;;8391885;28;19931;-70
2022/12/23 12:24:37;;;;;;;;;;;10.10;99.90;;;;;;8372593;28;20356;-70
2022/12/23 12:28:40;;;;;;;;;;;10.10;99.90;;;;;;8402559;28;19928;-70
2022/12/23 12:32:46;;;;;;;;;;;10.10;99.90;;;;;;8386078;28;20722;-70
2022/12/23 12:36:58;;;;;;;;;;;10.10;99.90;;;;;;8390936;28;19931;-70
2022/12/23 12:41:01;;;;;;;;;;;10.10;99.90;;;;;;8368048;28;19962;-70
2022/12/23 12:45:09;;;;;;;;;;;10.10;99.90;;;;;;8404047;28;19924;-70
2022/12/23 12:49:18;;;;;;;;;;;10.10;99.90;;;;;;8367235;28;19964;-70
2022/12/23 12:53:21;;;;;;;;;;;10.10;99.90;;;;;;8373973;28;19925;-70
2022/12/23 12:57:23;;;;;;;;;;;10.10;99.90;;;;;;8388102;28;19928;-70
2022/12/23 13:01:27;;;;;;;;;;;10.10;99.90;;;;;;8386155;28;20482;-70
2022/12/23 13:05:50;;;;;;;;;;;10.10;99.90;;;;;;8387233;28;19929;-69
2022/12/23 13:09:57;;;;;;;;;;;10.10;99.90;;;;;;8389269;28;19925;-70
2022/12/23 13:14:12;;;;;;;;;;;10.10;99.90;;;;;;8388061;28;19928;-70
2022/12/23 13:18:24;;;;;;;;;;;10.10;99.90;;;;;;8408479;28;19924;-70
2022/12/23 13:22:27;;;;;;;;;;;10.10;99.90;;;;;;8380882;28;19925;-70
2022/12/23 13:26:36;;;;;;;;;;;10.10;99.90;;;;;;8380966;28;20016;-70
2022/12/23 13:30:44;;;;;;;;;;;10.10;99.90;;;;;;8392322;28;19971;-71
2022/12/23 13:34:48;;;;;;;;;;;10.10;99.90;;;;;;8374623;28;19924;-70
2022/12/23 13:39:09;;;;;;;;;;;10.10;99.90;;;;;;8374468;28;20384;-70
2022/12/23 13:43:13;;;;;;;;;;;10.10;99.90;;;;;;8380237;28;19924;-70
2022/12/23 13:47:23;;;;;;;;;;;10.20;99.90;;;;;;8398764;28;19946;-70
2022/12/23 13:51:34;;;;;;;;;;;10.20;99.90;;;;;;8396388;28;20388;-70
2022/12/23 13:55:56;;;;;;;;;;;10.20;99.90;;;;;;8374672;28;20273;-70
2022/12/23 13:59:59;;;;;;;;;;;10.20;99.90;;;;;;8381337;28;19924;-70
2022/12/23 14:04:41;;;;;;;;;;;10.20;99.90;;;;;;8388146;28;19925;-70
2022/12/23 14:08:46;;;;;;;;;;;10.20;99.90;;;;;;8317295;28;20276;-70
2022/12/23 14:12:49;;;;;;;;;;;10.20;99.90;;;;;;8390641;28;19943;-70
2022/12/23 14:16:57;;;;;;;;;;;10.30;99.90;;;;;;8374892;28;19930;-70
2022/12/23 14:21:07;;;;;;;;;;;10.30;99.90;;;;;;8387330;28;19925;-70
2022/12/23 14:25:28;;;;;;;;;;;10.30;99.90;;;;;;8391671;28;20039;-70
2022/12/23 14:29:35;;;;;;;;;;;10.30;99.90;;;;;;8378169;28;20340;-70
2022/12/23 14:33:37;;;;;;;;;;;10.30;99.90;;;;;;8369117;28;19932;-70
2022/12/23 14:37:39;;;;;;;;;;;10.30;99.90;;;;;;8356124;28;20540;-70
2022/12/23 14:41:48;;;;;;;;;;;10.30;99.90;;;;;;8376617;28;19928;-70
2022/12/23 14:45:50;;;;;;;;;;;10.30;99.90;;;;;;8380333;28;19975;-70
2022/12/23 14:49:51;;;;;;;;;;;10.20;99.90;;;;;;8367677;28;19924;-70
2022/12/23 14:53:53;;;;;;;;;;;10.30;99.90;;;;;;8385238;28;20363;-70
2022/12/23 14:57:57;;;;;;;;;;;10.30;99.90;;;;;;8370843;28;19935;-70
2022/12/23 15:02:23;;;;;;;;;;;10.30;99.90;;;;;;8369214;28;19925;-70
2022/12/23 15:06:34;;;;;;;;;;;10.30;99.90;;;;;;8378341;28;19932;-70
2022/12/23 15:10:36;;;;;;;;;;;10.20;99.90;;;;;;8380031;28;19967;-70
2022/12/23 15:14:41;;;;;;;;;;;10.20;99.90;;;;;;8367541;28;20263;-70
2022/12/23 15:18:56;;;;;;;;;;;10.20;99.90;;;;;;8387641;28;19939;-70
2022/12/23 15:22:59;;;;;;;;;;;10.20;99.90;;;;;;8376914;28;20453;-70
2022/12/23 15:27:00;;;;;;;;;;;10.20;99.90;;;;;;8360648;28;20443;-70
2022/12/23 15:31:25;;;;;;;;;;;10.20;99.90;;;;;;8373502;28;20455;-70
2022/12/23 15:35:32;;;;;;;;;;;10.20;99.90;;;;;;8374629;28;19929;-70
2022/12/23 15:39:34;;;;;;;;;;;10.20;99.90;;;;;;8385720;28;20030;-70
2022/12/23 15:43:39;;;;;;;;;;;10.20;99.90;;;;;;8393398;28;19931;-70
2022/12/23 15:47:41;;;;;;;;;;;10.20;99.90;;;;;;8390836;28;19931;-70
2022/12/23 15:51:45;;;;;;;;;;;10.20;99.90;;;;;;8380611;28;19968;-70
2022/12/23 15:56:09;;;;;;;;;;;10.20;99.90;;;;;;8379391;28;20023;-71
2022/12/23 16:00:22;;;;;;;;;;;10.10;99.90;;;;;;8372821;28;19932;-70
2022/12/23 16:04:25;;;;;;;;;;;10.10;99.90;;;;;;8365270;28;19947;-70
2022/12/23 16:08:27;;;;;;;;;;;10.10;99.90;;;;;;8359336;28;19928;-70
2022/12/23 16:12:32;;;;;;;;;;;10.10;99.90;;;;;;8367381;28;20373;-70
2022/12/23 16:16:39;;;;;;;;;;;10.20;99.90;;;;;;8355621;28;19929;-70
2022/12/23 16:20:42;;;;;;;;;;;10.20;99.90;;;;;;8364141;28;19940;-70
2022/12/23 16:24:49;;;;;;;;;;;10.10;99.90;;;;;;8361171;28;19933;-70
2022/12/23 16:28:53;;;;;;;;;;;10.10;99.90;;;;;;8357815;28;19933;-70
2022/12/23 16:32:58;;;;;;;;;;;10.20;99.90;;;;;;8366013;28;20023;-70
2022/12/23 16:37:00;;;;;;;;;;;10.20;99.90;;;;;;8353617;28;19925;-71
2022/12/23 16:41:01;;;;;;;;;;;10.20;99.90;;;;;;8353113;28;19954;-70
2022/12/23 16:45:03;;;;;;;;;;;10.20;99.90;;;;;;8359842;28;20300;-70
2022/12/23 16:49:07;;;;;;;;;;;10.20;99.90;;;;;;8337092;28;19932;-70
2022/12/23 16:53:10;;;;;;;;;;;10.20;99.90;;;;;;8352817;28;19924;-70
2022/12/23 16:57:12;;;;;;;;;;;10.20;99.90;;;;;;8352254;28;20429;-70
2022/12/23 17:01:14;;;;;;;;;;;10.20;99.90;;;;;;8335441;28;19956;-70
2022/12/23 17:05:17;;;;;;;;;;;10.20;99.90;;;;;;8356542;28;19924;-70
2022/12/23 17:09:18;;;;;;;;;;;10.20;99.90;;;;;;8334602;28;19931;-70
2022/12/23 17:13:20;;;;;;;;;;;10.20;99.90;;;;;;8342284;28;20296;-70
2022/12/23 17:17:24;;;;;;;;;;;10.20;99.90;;;;;;8344974;28;20348;-70
2022/12/23 17:21:31;;;;;;;;;;;10.20;99.90;;;;;;8360235;28;20015;-71
2022/12/23 17:25:32;;;;;;;;;;;10.20;99.90;;;;;;8360188;28;20395;-70
2022/12/23 17:29:34;;;;;;;;;;;10.20;99.90;;;;;;8358866;28;19928;-71
2022/12/23 17:33:36;;;;;;;;;;;10.30;99.90;;;;;;8354186;28;20013;-71
2022/12/23 17:37:39;;;;;;;;;;;10.40;99.90;;;;;;8363267;28;19925;-70
2022/12/23 17:41:41;;;;;;;;;;;10.40;99.90;;;;;;8365413;28;19984;-71
2022/12/23 17:45:43;;;;;;;;;;;10.50;99.90;;;;;;8359329;28;20303;-70
2022/12/23 17:49:45;;;;;;;;;;;10.60;99.90;;;;;;8342448;28;19933;-70
2022/12/23 17:53:48;;;;;;;;;;;10.60;99.90;;;;;;8362697;28;19975;-70
2022/12/23 17:57:55;;;;;;;;;;;10.70;99.90;;;;;;8347605;28;20071;-70
2022/12/23 18:01:57;;;;;;;;;;;10.70;99.90;;;;;;8346959;28;20326;-70
2022/12/23 18:05:58;;;;;;;;;;;10.80;99.90;;;;;;8343782;28;19974;-70
2022/12/23 18:10:02;;;;;;;;;;;10.80;99.90;;;;;;8343895;28;19944;-70
2022/12/23 18:14:06;;;;;;;;;;;10.80;99.90;;;;;;8360421;28;25460;-70
2022/12/23 18:18:12;;;;;;;;;;;10.80;99.90;;;;;;8362931;28;20301;-70
2022/12/23 18:22:18;;;;;;;;;;;10.80;99.90;;;;;;8358472;28;20399;-69
2022/12/23 18:26:20;;;;;;;;;;;10.80;99.90;;;;;;8357414;28;20018;-70
2022/12/23 18:30:21;;;;;;;;;;;10.80;99.90;;;;;;8358484;28;19964;-70
2022/12/23 18:34:23;;;;;;;;;;;10.80;99.90;;;;;;8358121;28;20394;-69
2022/12/23 18:38:25;;;;;;;;;;;10.70;99.90;;;;;;8359140;28;19932;-70
2022/12/23 18:42:26;;;;;;;;;;;10.70;99.90;;;;;;8340205;28;19939;-70
2022/12/23 18:46:28;;;;;;;;;;;10.70;99.90;;;;;;8359157;28;19954;-70
2022/12/23 18:50:30;;;;;;;;;;;10.70;99.90;;;;;;8356358;28;19925;-69
2022/12/23 18:54:33;;;;;;;;;;;10.70;99.90;;;;;;8333399;28;19932;-70
2022/12/23 18:58:34;;;;;;;;;;;10.70;99.90;;;;;;8362972;28;20031;-70
2022/12/23 19:02:36;;;;;;;;;;;10.70;99.90;;;;;;8355723;28;19971;-70
2022/12/23 19:06:38;;;;;;;;;;;10.70;99.90;;;;;;8370801;28;19947;-70
2022/12/23 19:10:39;;;;;;;;;;;10.70;99.90;;;;;;8373489;28;19932;-70
2022/12/23 19:14:41;;;;;;;;;;;10.70;99.90;;;;;;8361533;28;19940;-70
2022/12/23 19:18:43;;;;;;;;;;;10.70;99.90;;;;;;8370308;28;19939;-69
2022/12/23 19:22:45;;;;;;;;;;;10.70;99.90;;;;;;8354831;28;19970;-70
2022/12/23 19:26:47;;;;;;;;;;;10.70;99.90;;;;;;8357161;28;19940;-70
2022/12/23 19:30:49;;;;;;;;;;;10.70;99.90;;;;;;8358497;28;20399;-70
2022/12/23 19:34:51;;;;;;;;;;;10.70;99.90;;;;;;8343861;28;19939;-70
2022/12/23 19:38:54;;;;;;;;;;;10.70;99.90;;;;;;8362160;28;19932;-70
2022/12/23 19:42:56;;;;;;;;;;;10.70;99.90;;;;;;8358611;28;19978;-69
2022/12/23 19:46:58;;;;;;;;;;;10.70;99.90;;;;;;8352771;28;20042;-70
2022/12/23 19:51:05;;;;;;;;;;;10.70;99.90;;;;;;8359553;28;20387;-70
2022/12/23 19:55:07;;;;;;;;;;;10.70;99.90;;;;;;8346480;28;23047;-70
2022/12/23 19:59:08;;;;;;;;;;;10.80;99.90;;;;;;8359985;28;19968;-70
2022/12/23 20:03:10;;;;;;;;;;;10.80;99.90;;;;;;8359452;28;20317;-69
2022/12/23 20:07:11;;;;;;;;;;;10.80;99.90;;;;;;8347015;28;20403;-70
2022/12/23 20:11:15;;;;;;;;;;;10.80;99.90;;;;;;8351754;28;20027;-70
2022/12/23 20:15:17;;;;;;;;;;;10.80;99.90;;;;;;8364565;28;20020;-70
2022/12/23 20:19:18;;;;;;;;;;;10.80;99.90;;;;;;8352217;28;19925;-70
2022/12/23 20:23:20;;;;;;;;;;;10.80;99.90;;;;;;8359351;28;19931;-70
2022/12/23 20:27:22;;;;;;;;;;;10.80;99.90;;;;;;8368698;28;19943;-70
2022/12/23 20:31:30;;;;;;;;;;;10.80;99.90;;;;;;8337236;28;20372;-69
2022/12/23 20:35:31;;;;;;;;;;;10.80;99.90;;;;;;8333097;28;19940;-70
2022/12/23 20:49:40;;;;;;;;;;;10.80;99.90;;;;;;8355054;28;19927;-70
2022/12/23 20:53:42;;;;;;;;;;;10.80;99.90;;;;;;8351013;28;19939;-70
2022/12/23 20:57:44;;;;;;;;;;;10.80;99.90;;;;;;8356842;28;19932;-70
2022/12/23 21:01:46;;;;;;;;;;;10.80;99.90;;;;;;8354857;28;20363;-70
2022/12/23 21:05:47;;;;;;;;;;;10.80;99.90;;;;;;8352409;28;20002;-70
2022/12/23 21:09:49;;;;;;;;;;;10.80;99.90;;;;;;8355679;28;20390;-70
2022/12/23 21:13:51;;;;;;;;;;;10.90;99.90;;;;;;8355664;28;20012;-70
2022/12/23 21:17:52;;;;;;;;;;;10.90;99.90;;;;;;8363894;28;20240;-70
2022/12/23 21:21:55;;;;;;;;;;;10.80;99.90;;;;;;8360287;28;19930;-70
2022/12/23 21:26:14;;;;;;;;;;;10.80;99.90;;;;;;8360024;28;19925;-70
2022/12/23 21:30:15;;;;;;;;;;;10.80;99.90;;;;;;8353055;28;19929;-70
2022/12/23 21:34:17;;;;;;;;;;;10.80;99.90;;;;;;8349703;28;20421;-70
2022/12/23 21:38:19;;;;;;;;;;;10.80;99.90;;;;;;8363307;28;20391;-70
2022/12/23 21:42:20;;;;;;;;;;;10.70;99.90;;;;;;8347597;28;19950;-70
2022/12/23 21:46:22;;;;;;;;;;;10.70;99.90;;;;;;8351486;28;19971;-69
2022/12/23 21:50:24;;;;;;;;;;;10.60;99.90;;;;;;8352085;28;19955;-70
2022/12/23 21:54:26;;;;;;;;;;;10.50;99.90;;;;;;8353402;28;19931;-70
2022/12/23 21:58:27;;;;;;;;;;;10.40;99.90;;;;;;8349580;28;20143;-69
2022/12/23 22:02:29;;;;;;;;;;;10.40;99.90;;;;;;8351787;28;20016;-70
2022/12/23 22:06:32;;;;;;;;;;;10.30;99.90;;;;;;8371171;28;19933;-70
2022/12/23 22:25:54;;;;;;;;;;;10.30;99.90;;;;;;8376701;28;19920;-70
2022/12/23 22:29:56;;;;;;;;;;;10.30;99.90;;;;;;8378136;28;19979;-70
2022/12/23 22:33:58;;;;;;;;;;;10.30;99.90;;;;;;8363887;28;20371;-70
2022/12/23 22:37:59;;;;;;;;;;;10.30;99.90;;;;;;8389731;28;20477;-69
2022/12/23 22:42:01;;;;;;;;;;;10.30;99.90;;;;;;8378227;28;19925;-70
2022/12/23 22:46:03;;;;;;;;;;;10.30;99.90;;;;;;8358202;28;20408;-70
2022/12/23 22:50:05;;;;;;;;;;;10.30;99.90;;;;;;8361924;28;19973;-70
2022/12/23 22:54:06;;;;;;;;;;;10.30;99.90;;;;;;8360626;28;20015;-70
2022/12/23 22:58:08;;;;;;;;;;;10.30;99.90;;;;;;8362091;28;20325;-70
2022/12/23 23:02:10;;;;;;;;;;;10.20;99.90;;;;;;8366103;28;20380;-70
2022/12/23 23:06:11;;;;;;;;;;;10.20;99.90;;;;;;8371152;28;20368;-70
2022/12/23 23:10:13;;;;;;;;;;;10.20;99.90;;;;;;8372974;28;19931;-70
2022/12/23 23:14:15;;;;;;;;;;;10.20;99.90;;;;;;8379371;28;20023;-70
2022/12/23 23:18:17;;;;;;;;;;;10.20;99.90;;;;;;8387938;28;19931;-70
2022/12/23 23:22:19;;;;;;;;;;;10.30;99.90;;;;;;8368366;28;20409;-70
2022/12/23 23:26:25;;;;;;;;;;;10.30;99.90;;;;;;8360047;28;19933;-70
2022/12/23 23:30:27;;;;;;;;;;;10.30;99.90;;;;;;8378093;28;19947;-70
2022/12/23 23:34:28;;;;;;;;;;;10.30;99.90;;;;;;8366503;28;19968;-70
2022/12/23 23:38:30;;;;;;;;;;;10.30;99.90;;;;;;8381563;28;19939;-70
2022/12/23 23:42:32;;;;;;;;;;;10.30;99.90;;;;;;8374332;28;20660;-70
2022/12/23 23:46:33;;;;;;;;;;;10.30;99.90;;;;;;8374467;28;19929;-70
2022/12/23 23:50:35;;;;;;;;;;;10.30;99.90;;;;;;8378185;28;20758;-70
2022/12/23 23:54:37;;;;;;;;;;;10.30;99.90;;;;;;8375313;28;19924;-70
2022/12/23 23:58:39;;;;;;;;;;;10.30;99.90;;;;;;8377265;28;19936;-70
